Time;durP1;ratioP1;P1;durP2;ratioP2;P2;SDS_P1;SDS_P2;PMS_P1;PMS_P2;Temp;Humidity;BMP_temperature;BMP_pressure;BME280_temperature;BME280_humidity;BME280_pressure;Samples;Min_cycle;Max_cycle;Signal;HPM_P1;HPM_P2
2021/11/14 00:00:55;;;;;;;0.10;0.10;;;5.20;99.90;;;;;;5050056;28;20165;-72
2021/11/14 00:03:22;;;;;;;0.43;0.43;;;5.20;99.90;;;;;;5051236;28;20185;-72
2021/11/14 00:05:49;;;;;;;2.05;0.95;;;5.20;99.90;;;;;;5050256;28;20170;-77
2021/11/14 00:08:16;;;;;;;1.30;1.10;;;5.00;99.90;;;;;;5051426;28;20165;-77
2021/11/14 00:10:44;;;;;;;1.00;1.00;;;4.80;99.90;;;;;;5049929;28;20299;-76
2021/11/14 00:13:11;;;;;;;0.10;0.10;;;4.70;99.90;;;;;;5050960;28;20219;-76
2021/11/14 00:15:38;;;;;;;0.20;0.20;;;4.70;99.90;;;;;;5049871;28;20173;-76
2021/11/14 00:18:04;;;;;;;0.30;0.30;;;4.80;99.90;;;;;;5050030;28;20208;-76
2021/11/14 00:20:32;;;;;;;0.10;0.10;;;4.80;99.90;;;;;;5049817;28;20557;-76
2021/11/14 00:22:58;;;;;;;0.20;0.20;;;5.00;99.90;;;;;;5050472;28;20209;-76
2021/11/14 00:25:25;;;;;;;0.10;0.10;;;5.00;99.90;;;;;;5060606;28;20204;-76
2021/11/14 00:27:51;;;;;;;0.28;0.28;;;4.90;99.90;;;;;;5067295;28;20653;-76
2021/11/14 00:30:18;;;;;;;0.55;0.55;;;4.90;99.90;;;;;;5071142;28;20157;-76
2021/11/14 00:32:45;;;;;;;0.55;0.55;;;4.90;99.90;;;;;;5070941;28;20196;-77
2021/11/14 00:35:13;;;;;;;1.55;0.65;;;4.90;99.90;;;;;;5052598;28;20216;-76
2021/11/14 00:37:40;;;;;;;0.68;0.68;;;4.80;99.90;;;;;;5050777;28;20188;-77
2021/11/14 00:40:10;;;;;;;0.40;0.40;;;4.80;99.90;;;;;;5049381;28;20199;-76
2021/11/14 00:42:37;;;;;;;0.20;0.20;;;4.70;99.90;;;;;;5049367;28;20196;-77
2021/11/14 00:45:04;;;;;;;0.20;0.20;;;4.70;99.90;;;;;;5065708;28;20184;-76
2021/11/14 00:47:30;;;;;;;1.50;1.48;;;4.70;99.90;;;;;;5070761;28;20161;-76
2021/11/14 00:49:56;;;;;;;0.30;0.30;;;4.60;99.90;;;;;;5052818;28;20249;-76
2021/11/14 00:52:22;;;;;;;0.20;0.20;;;4.60;99.90;;;;;;5050022;28;20162;-76
2021/11/14 00:54:48;;;;;;;0.10;0.10;;;4.60;99.90;;;;;;5050545;28;20779;-76
2021/11/14 00:57:14;;;;;;;0.52;0.52;;;4.60;99.90;;;;;;5050329;28;20233;-76
2021/11/14 00:59:40;;;;;;;0.10;0.10;;;4.60;99.90;;;;;;5050442;28;20225;-77
2021/11/14 01:02:06;;;;;;;0.57;0.57;;;4.70;99.90;;;;;;5050293;28;20185;-76
2021/11/14 01:04:33;;;;;;;0.10;0.10;;;4.70;99.90;;;;;;5049172;28;20217;-76
2021/11/14 01:06:59;;;;;;;2.78;1.20;;;4.80;99.90;;;;;;5050277;28;20181;-76
2021/11/14 01:09:26;;;;;;;0.10;0.10;;;4.80;99.90;;;;;;5049009;28;20169;-76
2021/11/14 01:11:52;;;;;;;0.80;0.80;;;4.80;99.90;;;;;;5048886;28;20258;-76
2021/11/14 01:14:19;;;;;;;0.10;0.10;;;4.80;99.90;;;;;;5067408;28;20224;-76
2021/11/14 01:16:45;;;;;;;0.10;0.10;;;5.00;99.90;;;;;;5070142;28;20221;-76
2021/11/14 01:19:11;;;;;;;0.20;0.20;;;5.00;99.90;;;;;;5059369;28;20181;-76
2021/11/14 01:21:37;;;;;;;1.10;0.40;;;5.00;99.90;;;;;;5049855;28;20189;-76
2021/11/14 01:24:03;;;;;;;0.10;0.10;;;5.00;99.90;;;;;;5048725;28;20193;-76
2021/11/14 01:26:30;;;;;;;1.10;1.08;;;5.00;99.90;;;;;;5054913;28;20164;-76
2021/11/14 01:28:57;;;;;;;0.40;0.40;;;5.00;99.90;;;;;;5068749;28;20187;-77
2021/11/14 01:31:22;;;;;;;1.48;1.38;;;5.00;99.90;;;;;;5069898;28;20164;-76
2021/11/14 01:33:48;;;;;;;4.38;1.55;;;5.00;99.90;;;;;;5068350;28;20200;-76
2021/11/14 01:36:14;;;;;;;0.10;0.10;;;5.10;99.90;;;;;;5068258;28;20203;-76
2021/11/14 01:38:40;;;;;;;0.20;0.20;;;5.10;99.90;;;;;;5068323;28;20172;-76
2021/11/14 01:41:09;;;;;;;0.10;0.10;;;5.10;99.90;;;;;;5069627;28;20200;-76
2021/11/14 01:43:43;;;;;;;0.15;0.15;;;5.20;99.90;;;;;;5069554;28;20199;-77
2021/11/14 01:46:09;;;;;;;0.10;0.10;;;5.20;99.90;;;;;;5049586;28;20157;-76
2021/11/14 01:48:35;;;;;;;0.10;0.10;;;5.20;99.90;;;;;;5067422;28;20571;-77
2021/11/14 01:51:03;;;;;;;0.45;0.45;;;5.20;99.90;;;;;;5068139;28;20184;-77
2021/11/14 01:53:30;;;;;;;1.35;1.30;;;5.20;99.90;;;;;;5069503;28;20204;-76
2021/11/14 01:55:57;;;;;;;0.10;0.10;;;5.20;99.90;;;;;;5069360;28;20217;-77
2021/11/14 01:58:25;;;;;;;0.10;0.10;;;5.20;99.90;;;;;;5068072;28;20196;-76
2021/11/14 02:00:52;;;;;;;0.17;0.17;;;5.10;99.90;;;;;;5069140;28;20184;-77
2021/11/14 02:03:19;;;;;;;0.15;0.15;;;5.10;99.90;;;;;;5068481;28;20171;-77
2021/11/14 02:05:45;;;;;;;0.00;0.00;;;5.10;99.90;;;;;;5069347;28;20161;-77
2021/11/14 02:08:13;;;;;;;0.10;0.10;;;5.10;99.90;;;;;;5069156;28;20188;-76
2021/11/14 02:10:41;;;;;;;0.20;0.20;;;5.20;99.90;;;;;;5069359;28;20156;-77
2021/11/14 02:13:08;;;;;;;0.10;0.10;;;5.20;99.90;;;;;;5067916;28;20194;-79
2021/11/14 02:15:35;;;;;;;0.20;0.20;;;5.20;99.90;;;;;;5067942;28;20194;-77
2021/11/14 02:18:02;;;;;;;0.35;0.35;;;5.10;99.90;;;;;;5069114;28;20250;-76
2021/11/14 02:20:29;;;;;;;0.20;0.20;;;5.20;99.90;;;;;;5067863;28;20173;-79
2021/11/14 02:22:55;;;;;;;0.90;0.52;;;5.10;99.90;;;;;;5067740;28;20204;-78
2021/11/14 02:25:22;;;;;;;0.10;0.10;;;5.00;99.90;;;;;;5067714;28;20176;-78
2021/11/14 02:27:51;;;;;;;0.20;0.20;;;5.00;99.90;;;;;;5069015;28;20216;-78
2021/11/14 02:30:20;;;;;;;0.20;0.20;;;5.00;99.90;;;;;;5069021;28;20163;-78
2021/11/14 02:32:46;;;;;;;0.10;0.10;;;5.00;99.90;;;;;;5067696;28;20184;-78
2021/11/14 02:35:13;;;;;;;0.10;0.10;;;5.10;99.90;;;;;;5067691;28;20240;-77
2021/11/14 02:37:39;;;;;;;0.20;0.20;;;5.00;99.90;;;;;;5067567;28;20196;-78
2021/11/14 02:40:07;;;;;;;0.10;0.10;;;5.00;99.90;;;;;;5067645;28;20183;-78
2021/11/14 02:42:33;;;;;;;0.65;0.65;;;4.90;99.90;;;;;;5069546;28;20210;-77
2021/11/14 02:44:59;;;;;;;3.15;0.68;;;4.90;99.90;;;;;;5068956;28;20606;-78
2021/11/14 02:47:25;;;;;;;0.10;0.10;;;5.00;99.90;;;;;;5068887;28;20684;-78
2021/11/14 02:49:52;;;;;;;0.10;0.10;;;4.90;99.90;;;;;;5068933;28;20217;-77
2021/11/14 02:52:18;;;;;;;0.63;0.63;;;5.00;99.90;;;;;;5068091;28;20200;-78
2021/11/14 02:54:44;;;;;;;0.73;0.55;;;5.00;99.90;;;;;;5068974;28;20171;-78
2021/11/14 02:57:10;;;;;;;0.10;0.10;;;5.00;99.90;;;;;;5068784;28;20232;-77
2021/11/14 02:59:37;;;;;;;0.10;0.10;;;5.00;99.90;;;;;;5068898;28;20198;-77
2021/11/14 03:02:03;;;;;;;0.10;0.10;;;5.00;99.90;;;;;;5068769;28;20205;-78
2021/11/14 03:04:30;;;;;;;0.57;0.57;;;5.00;99.90;;;;;;5067556;28;20191;-78
2021/11/14 03:07:00;;;;;;;0.60;0.60;;;4.90;99.90;;;;;;5068918;28;20184;-78
2021/11/14 03:09:26;;;;;;;0.10;0.10;;;4.90;99.90;;;;;;5067610;28;20251;-77
2021/11/14 03:11:55;;;;;;;0.10;0.10;;;4.80;99.90;;;;;;5068740;28;20219;-77
2021/11/14 03:14:21;;;;;;;0.10;0.10;;;4.90;99.90;;;;;;5068830;28;20195;-78
2021/11/14 03:16:47;;;;;;;0.43;0.43;;;4.90;99.90;;;;;;5071347;28;20174;-78
2021/11/14 03:19:14;;;;;;;0.17;0.17;;;4.90;99.90;;;;;;5072549;28;20557;-78
2021/11/14 03:21:40;;;;;;;0.30;0.30;;;4.90;99.90;;;;;;5072507;28;20211;-77
2021/11/14 03:24:07;;;;;;;0.10;0.10;;;4.90;99.90;;;;;;5072658;28;20217;-77
2021/11/14 03:26:34;;;;;;;1.08;0.98;;;5.00;99.90;;;;;;5072466;28;20157;-77
2021/11/14 03:29:00;;;;;;;0.20;0.20;;;5.00;99.90;;;;;;5071033;28;20698;-78
2021/11/14 03:31:27;;;;;;;0.10;0.10;;;4.90;99.90;;;;;;5070945;28;20181;-78
2021/11/14 03:33:56;;;;;;;0.20;0.20;;;5.00;99.90;;;;;;5072262;28;20168;-78
2021/11/14 03:36:22;;;;;;;0.10;0.10;;;5.00;99.90;;;;;;5072200;28;20156;-78
2021/11/14 03:38:55;;;;;;;0.10;0.10;;;5.10;99.90;;;;;;5072165;28;20161;-78
2021/11/14 03:41:24;;;;;;;0.45;0.45;;;5.10;99.90;;;;;;5072040;28;20189;-78
2021/11/14 03:43:51;;;;;;;3.70;2.08;;;5.00;99.90;;;;;;5070799;28;20209;-77
2021/11/14 03:46:19;;;;;;;0.10;0.10;;;5.10;99.90;;;;;;5072094;28;20207;-78
2021/11/14 03:48:47;;;;;;;0.35;0.35;;;5.20;99.90;;;;;;5072048;28;20153;-78
2021/11/14 03:51:14;;;;;;;0.10;0.10;;;5.10;99.90;;;;;;5071785;28;20188;-78
2021/11/14 03:53:41;;;;;;;0.13;0.13;;;5.20;99.90;;;;;;5071912;28;20169;-78
2021/11/14 03:56:08;;;;;;;0.08;0.08;;;5.20;99.90;;;;;;5071633;28;20231;-78
2021/11/14 03:58:36;;;;;;;0.93;0.93;;;5.20;99.90;;;;;;5070441;28;20200;-78
2021/11/14 04:01:06;;;;;;;0.20;0.20;;;5.20;99.90;;;;;;5071698;28;20157;-78
2021/11/14 04:03:33;;;;;;;0.20;0.20;;;5.20;99.90;;;;;;5071636;28;20187;-77
2021/11/14 04:06:00;;;;;;;0.10;0.10;;;5.20;99.90;;;;;;5071723;28;20156;-78
2021/11/14 04:08:26;;;;;;;0.40;0.40;;;5.10;99.90;;;;;;5071604;28;20275;-79
2021/11/14 04:10:56;;;;;;;0.45;0.45;;;5.00;99.90;;;;;;5070457;28;20171;-78
2021/11/14 04:13:23;;;;;;;0.38;0.38;;;5.00;99.90;;;;;;5070238;28;20197;-78
2021/11/14 04:15:49;;;;;;;0.10;0.10;;;4.90;99.90;;;;;;5071354;28;20157;-78
2021/11/14 04:18:15;;;;;;;0.10;0.10;;;5.00;99.90;;;;;;5070136;28;20165;-78
2021/11/14 04:20:44;;;;;;;0.45;0.45;;;4.90;99.90;;;;;;5071395;28;20161;-78
2021/11/14 04:23:12;;;;;;;0.10;0.10;;;5.00;99.90;;;;;;5071291;28;20192;-78
2021/11/14 04:25:38;;;;;;;0.40;0.40;;;5.00;99.90;;;;;;5070364;28;20153;-77
2021/11/14 04:28:06;;;;;;;0.55;0.55;;;5.00;99.90;;;;;;5071301;28;20153;-78
2021/11/14 04:30:33;;;;;;;30.23;1.27;;;5.00;99.90;;;;;;5071083;28;20172;-78
2021/11/14 04:32:59;;;;;;;0.10;0.10;;;5.00;99.90;;;;;;5069819;28;20200;-78
2021/11/14 04:35:26;;;;;;;0.10;0.10;;;4.90;99.90;;;;;;5071136;28;20702;-78
2021/11/14 04:37:52;;;;;;;0.10;0.10;;;4.90;99.90;;;;;;5069964;28;20648;-78
2021/11/14 04:40:21;;;;;;;1.38;1.27;;;4.90;99.90;;;;;;5071096;28;20165;-78
2021/11/14 04:42:47;;;;;;;0.40;0.40;;;5.00;99.90;;;;;;5069531;28;20208;-78
2021/11/14 04:45:14;;;;;;;0.10;0.10;;;4.90;99.90;;;;;;5070887;28;20164;-78
2021/11/14 04:47:40;;;;;;;0.38;0.38;;;4.90;99.90;;;;;;5070722;28;20157;-78
2021/11/14 04:50:10;;;;;;;0.10;0.10;;;4.90;99.90;;;;;;5070911;28;20161;-78
2021/11/14 04:52:36;;;;;;;0.40;0.40;;;4.90;99.90;;;;;;5069521;28;20246;-78
2021/11/14 04:55:03;;;;;;;2.65;1.17;;;4.80;99.90;;;;;;5069180;28;20177;-78
2021/11/14 04:57:29;;;;;;;0.45;0.45;;;4.80;99.90;;;;;;5069488;28;20177;-78
2021/11/14 04:59:55;;;;;;;0.45;0.45;;;4.90;99.90;;;;;;5069354;28;20172;-78
2021/11/14 05:02:21;;;;;;;0.50;0.50;;;4.90;99.90;;;;;;5070441;28;20211;-78
2021/11/14 05:04:47;;;;;;;1.40;1.30;;;5.00;99.90;;;;;;5070640;28;20160;-78
2021/11/14 05:07:14;;;;;;;0.32;0.32;;;4.90;99.90;;;;;;5070648;28;20192;-78
2021/11/14 05:09:40;;;;;;;0.15;0.15;;;5.00;99.90;;;;;;5068865;28;20168;-78
2021/11/14 05:12:07;;;;;;;1.75;1.65;;;5.00;99.90;;;;;;5070385;28;20197;-78
2021/11/14 05:14:33;;;;;;;1.75;0.47;;;5.00;99.90;;;;;;5068992;28;20172;-78
2021/11/14 05:16:59;;;;;;;0.10;0.10;;;5.10;99.90;;;;;;5070342;28;20171;-78
2021/11/14 05:19:25;;;;;;;0.10;0.10;;;5.10;99.90;;;;;;5070281;28;20188;-78
2021/11/14 05:21:51;;;;;;;0.20;0.20;;;5.20;99.90;;;;;;5068682;28;20303;-78
2021/11/14 05:24:17;;;;;;;1.45;0.82;;;5.20;99.90;;;;;;5070185;28;20157;-79
2021/11/14 05:26:43;;;;;;;1.20;1.10;;;5.20;99.90;;;;;;5068727;28;20200;-78
2021/11/14 05:29:09;;;;;;;0.90;0.90;;;5.10;99.90;;;;;;5070128;28;20157;-78
2021/11/14 05:31:35;;;;;;;0.20;0.20;;;5.10;99.90;;;;;;5068773;28;20669;-78
2021/11/14 05:34:01;;;;;;;0.40;0.40;;;5.00;99.90;;;;;;5070014;28;20161;-77
2021/11/14 05:36:28;;;;;;;0.73;0.70;;;5.00;99.90;;;;;;5069664;28;20179;-77
2021/11/14 05:38:54;;;;;;;0.10;0.10;;;5.00;99.90;;;;;;5069821;28;20160;-78
2021/11/14 05:41:20;;;;;;;0.45;0.45;;;5.00;99.90;;;;;;5068407;28;20216;-77
2021/11/14 05:43:47;;;;;;;0.08;0.08;;;5.00;99.90;;;;;;5068552;28;20232;-78
2021/11/14 05:46:13;;;;;;;0.10;0.10;;;5.10;99.90;;;;;;5069825;28;20182;-78
2021/11/14 05:48:40;;;;;;;0.77;0.77;;;5.10;99.90;;;;;;5069541;28;20157;-77
2021/11/14 05:51:06;;;;;;;0.35;0.35;;;5.10;99.90;;;;;;5069667;28;20156;-78
2021/11/14 05:53:32;;;;;;;1.35;0.52;;;5.10;99.90;;;;;;5068217;28;20226;-78
2021/11/14 05:55:57;;;;;;;0.17;0.17;;;5.20;99.90;;;;;;5069320;28;20247;-78
2021/11/14 05:58:33;;;;;;;0.68;0.68;;;5.10;99.90;;;;;;5069595;28;20231;-78
2021/11/14 06:01:09;;;;;;;0.65;0.65;;;5.10;99.90;;;;;;5068068;28;20536;-77
2021/11/14 06:06:05;;;;;;;1.13;1.05;;;5.20;99.90;;;;;;5069692;28;20160;-78
2021/11/14 06:08:31;;;;;;;0.10;0.10;;;5.20;99.90;;;;;;5068158;28;20164;-78
2021/11/14 06:10:58;;;;;;;0.30;0.30;;;5.20;99.90;;;;;;5069363;28;20271;-78
2021/11/14 06:13:26;;;;;;;0.10;0.10;;;5.10;99.90;;;;;;5069243;28;20192;-78
2021/11/14 06:15:53;;;;;;;0.10;0.10;;;5.20;99.90;;;;;;5068097;28;20175;-78
2021/11/14 06:18:20;;;;;;;1.40;0.85;;;5.20;99.90;;;;;;5069327;28;20156;-78
2021/11/14 06:20:47;;;;;;;1.13;1.05;;;5.20;99.90;;;;;;5067902;28;20207;-78
2021/11/14 06:23:14;;;;;;;0.30;0.30;;;5.30;99.90;;;;;;5068026;28;20204;-78
2021/11/14 06:25:39;;;;;;;0.10;0.10;;;5.30;99.90;;;;;;5068807;28;20157;-78
2021/11/14 06:28:06;;;;;;;0.10;0.10;;;5.30;99.90;;;;;;5067701;28;20184;-79
2021/11/14 06:30:32;;;;;;;0.10;0.10;;;5.30;99.90;;;;;;5069171;28;20183;-78
2021/11/14 06:32:58;;;;;;;0.40;0.40;;;5.40;99.90;;;;;;5067795;28;20228;-78
2021/11/14 06:35:24;;;;;;;0.15;0.15;;;5.40;99.90;;;;;;5069205;28;20165;-78
2021/11/14 06:37:51;;;;;;;0.52;0.52;;;5.40;99.90;;;;;;5069105;28;20542;-78
2021/11/14 06:40:18;;;;;;;0.43;0.43;;;5.50;99.90;;;;;;5069033;28;20192;-78
2021/11/14 06:42:44;;;;;;;0.40;0.40;;;5.50;99.90;;;;;;5068767;28;20200;-78
2021/11/14 06:45:11;;;;;;;0.10;0.10;;;5.50;99.90;;;;;;5067675;28;20172;-77
2021/11/14 06:47:38;;;;;;;0.75;0.75;;;5.50;99.90;;;;;;5068996;28;20156;-78
2021/11/14 06:50:06;;;;;;;0.80;0.80;;;5.50;99.90;;;;;;5070424;28;20161;-78
2021/11/14 06:52:32;;;;;;;0.10;0.10;;;5.50;99.90;;;;;;5072808;28;20215;-78
2021/11/14 06:54:58;;;;;;;0.03;0.03;;;5.50;99.90;;;;;;5072809;28;20244;-77
2021/11/14 06:57:24;;;;;;;0.10;0.10;;;5.50;99.90;;;;;;5071819;28;20177;-78
2021/11/14 06:59:50;;;;;;;0.30;0.30;;;5.50;99.90;;;;;;5073053;28;20171;-77
2021/11/14 07:02:18;;;;;;;0.00;0.00;;;5.60;99.90;;;;;;5071274;28;20219;-78
2021/11/14 07:04:44;;;;;;;0.32;0.32;;;5.60;99.90;;;;;;5071456;28;20180;-78
2021/11/14 07:07:10;;;;;;;0.10;0.10;;;5.60;99.90;;;;;;5071575;28;20192;-77
2021/11/14 07:09:36;;;;;;;0.10;0.10;;;5.60;99.90;;;;;;5072732;28;20214;-78
2021/11/14 07:12:02;;;;;;;0.55;0.55;;;5.80;99.90;;;;;;5071444;28;20219;-78
2021/11/14 07:14:28;;;;;;;0.10;0.10;;;5.80;99.90;;;;;;5071350;28;20172;-78
2021/11/14 07:16:55;;;;;;;0.10;0.10;;;5.80;99.90;;;;;;5071306;28;20173;-78
2021/11/14 07:19:21;;;;;;;0.20;0.20;;;5.80;99.90;;;;;;5072595;28;20183;-78
2021/11/14 07:21:48;;;;;;;0.57;0.57;;;5.90;99.90;;;;;;5072329;28;20212;-78
2021/11/14 07:24:14;;;;;;;0.10;0.10;;;5.90;99.90;;;;;;5072467;28;20157;-78
2021/11/14 07:26:41;;;;;;;0.20;0.20;;;5.90;99.90;;;;;;5072220;28;20158;-78
2021/11/14 07:29:07;;;;;;;0.15;0.15;;;5.90;99.90;;;;;;5072355;28;20168;-78
2021/11/14 07:31:33;;;;;;;0.98;0.80;;;6.00;99.90;;;;;;5072370;28;20188;-78
2021/11/14 07:33:59;;;;;;;0.10;0.10;;;6.00;99.90;;;;;;5072446;28;20169;-78
2021/11/14 07:36:25;;;;;;;0.20;0.20;;;6.00;99.90;;;;;;5072238;28;20259;-78
2021/11/14 07:38:51;;;;;;;0.20;0.20;;;6.00;99.90;;;;;;5070857;28;20180;-78
2021/11/14 07:41:17;;;;;;;0.73;0.40;;;6.10;99.90;;;;;;5071921;28;20200;-78
2021/11/14 07:43:43;;;;;;;0.57;0.57;;;6.20;99.90;;;;;;5070642;28;20636;-78
2021/11/14 07:46:10;;;;;;;0.20;0.20;;;6.20;99.90;;;;;;5070704;28;20157;-78
2021/11/14 07:48:36;;;;;;;0.20;0.20;;;6.30;99.90;;;;;;5070722;28;20177;-77
2021/11/14 07:51:03;;;;;;;0.15;0.15;;;6.40;99.90;;;;;;5071923;28;20161;-78
2021/11/14 07:53:31;;;;;;;0.10;0.10;;;6.30;99.90;;;;;;5071608;28;20189;-78
2021/11/14 07:55:58;;;;;;;0.68;0.68;;;6.40;99.90;;;;;;5070293;28;20220;-78
2021/11/14 07:58:24;;;;;;;0.55;0.55;;;6.40;99.90;;;;;;5071829;28;20176;-78
2021/11/14 08:00:50;;;;;;;2.75;1.88;;;6.40;99.90;;;;;;5071649;28;20641;-78
2021/11/14 08:03:16;;;;;;;0.40;0.40;;;6.40;99.90;;;;;;5070350;28;20291;-78
2021/11/14 08:05:43;;;;;;;0.32;0.32;;;6.50;99.90;;;;;;5071652;28;20157;-78
2021/11/14 08:08:10;;;;;;;0.10;0.10;;;6.60;99.90;;;;;;5070292;28;20168;-78
2021/11/14 08:10:37;;;;;;;0.50;0.50;;;6.80;99.90;;;;;;5071708;28;20161;-78
2021/11/14 08:13:05;;;;;;;0.30;0.30;;;6.80;99.90;;;;;;5071280;28;20205;-78
2021/11/14 08:15:31;;;;;;;0.10;0.10;;;6.70;99.90;;;;;;5071448;28;20164;-78
2021/11/14 08:17:57;;;;;;;0.08;0.08;;;6.60;99.90;;;;;;5071516;28;20168;-78
2021/11/14 08:20:24;;;;;;;0.95;0.90;;;6.50;99.90;;;;;;5071376;28;20165;-78
2021/11/14 08:22:50;;;;;;;0.17;0.17;;;6.60;99.90;;;;;;5071141;28;20230;-78
2021/11/14 08:25:18;;;;;;;0.10;0.10;;;6.60;99.90;;;;;;5071275;28;20161;-78
2021/11/14 08:27:45;;;;;;;0.40;0.40;;;6.70;99.90;;;;;;5071074;28;20161;-78
2021/11/14 08:30:14;;;;;;;0.10;0.10;;;6.70;99.90;;;;;;5071299;28;20185;-78
2021/11/14 08:32:40;;;;;;;0.10;0.10;;;6.90;99.90;;;;;;5071098;28;20188;-78
2021/11/14 08:35:07;;;;;;;0.10;0.10;;;6.90;99.90;;;;;;5071033;28;20152;-78
2021/11/14 08:37:34;;;;;;;0.10;0.10;;;6.80;99.90;;;;;;5071065;28;20173;-78
2021/11/14 08:40:01;;;;;;;0.20;0.20;;;6.70;99.90;;;;;;5071080;28;20157;-78
2021/11/14 08:42:27;;;;;;;0.38;0.38;;;6.60;99.90;;;;;;5069623;28;20256;-78
2021/11/14 08:44:53;;;;;;;0.03;0.03;;;6.60;99.90;;;;;;5072389;28;20672;-79
2021/11/14 08:47:19;;;;;;;0.15;0.15;;;6.60;99.90;;;;;;5070929;28;20184;-79
2021/11/14 08:49:45;;;;;;;1.30;1.25;;;6.70;99.90;;;;;;5069577;28;20176;-78
2021/11/14 08:52:12;;;;;;;0.10;0.10;;;6.60;99.90;;;;;;5070160;28;20196;-78
2021/11/14 08:54:38;;;;;;;0.13;0.13;;;6.70;99.90;;;;;;5077394;28;20573;-78
2021/11/14 08:57:05;;;;;;;0.70;0.70;;;6.50;99.90;;;;;;5080148;28;20252;-78
2021/11/14 08:59:31;;;;;;;0.10;0.10;;;6.50;99.90;;;;;;5070530;28;20168;-78
2021/11/14 09:02:02;;;;;;;1.98;1.23;;;6.50;99.90;;;;;;5069230;28;20646;-77
2021/11/14 09:04:29;;;;;;;0.20;0.20;;;6.50;99.90;;;;;;5069352;28;20165;-77
2021/11/14 09:06:55;;;;;;;0.10;0.10;;;6.40;99.90;;;;;;5070557;28;20545;-77
2021/11/14 09:09:22;;;;;;;0.40;0.40;;;6.40;99.90;;;;;;5069278;28;20220;-78
2021/11/14 09:11:49;;;;;;;0.10;0.10;;;6.40;99.90;;;;;;5069856;28;20188;-78
2021/11/14 09:14:17;;;;;;;0.10;0.10;;;6.40;99.90;;;;;;5070415;28;20398;-77
2021/11/14 09:16:44;;;;;;;0.60;0.60;;;6.50;99.90;;;;;;5070399;28;20228;-77
2021/11/14 09:19:10;;;;;;;1.00;0.73;;;6.40;99.90;;;;;;5070407;28;20172;-77
2021/11/14 09:21:39;;;;;;;0.00;0.00;;;6.50;99.90;;;;;;5069842;28;20216;-77
2021/11/14 09:24:06;;;;;;;0.25;0.25;;;6.60;99.90;;;;;;5068775;28;20164;-77
2021/11/14 09:26:32;;;;;;;0.10;0.10;;;6.60;99.90;;;;;;5070045;28;20179;-78
2021/11/14 09:28:59;;;;;;;0.10;0.10;;;6.50;99.90;;;;;;5070104;28;20153;-77
2021/11/14 09:31:25;;;;;;;1.60;1.50;;;6.50;99.90;;;;;;5069922;28;20168;-77
2021/11/14 09:33:54;;;;;;;1.05;1.05;;;6.70;99.90;;;;;;5069978;28;20195;-77
2021/11/14 09:36:21;;;;;;;1.50;1.45;;;6.70;99.90;;;;;;5069954;28;20179;-78
2021/11/14 09:38:48;;;;;;;0.15;0.15;;;6.70;99.90;;;;;;5068689;28;20169;-78
2021/11/14 09:41:15;;;;;;;0.28;0.28;;;6.80;99.90;;;;;;5068247;28;20196;-77
2021/11/14 09:43:41;;;;;;;0.10;0.10;;;6.60;99.90;;;;;;5069676;28;20149;-77
2021/11/14 09:46:07;;;;;;;0.10;0.10;;;6.60;99.90;;;;;;5069698;28;20149;-77
2021/11/14 09:48:34;;;;;;;0.13;0.13;;;6.60;99.90;;;;;;5069655;28;20161;-78
2021/11/14 09:51:00;;;;;;;0.10;0.10;;;6.80;99.90;;;;;;5069547;28;20231;-78
2021/11/14 09:53:34;;;;;;;2.25;2.05;;;6.90;99.90;;;;;;5069391;28;20192;-78
2021/11/14 09:56:03;;;;;;;0.30;0.30;;;7.00;99.90;;;;;;5069409;28;20243;-77
2021/11/14 09:58:29;;;;;;;1.33;1.33;;;6.90;99.90;;;;;;5069467;28;20172;-78
2021/11/14 10:00:56;;;;;;;0.10;0.10;;;7.00;99.90;;;;;;5069463;28;20523;-78
2021/11/14 10:03:22;;;;;;;0.43;0.43;;;7.10;99.90;;;;;;5068115;28;20199;-78
2021/11/14 10:05:49;;;;;;;0.60;0.60;;;7.00;99.90;;;;;;5069425;28;20184;-78
2021/11/14 10:08:16;;;;;;;0.10;0.10;;;6.90;99.90;;;;;;5067940;28;20165;-78
2021/11/14 10:10:52;;;;;;;0.38;0.38;;;6.80;99.90;;;;;;5069421;28;20157;-78
2021/11/14 10:13:22;;;;;;;1.00;1.00;;;6.80;99.90;;;;;;5069169;28;20221;-77
2021/11/14 10:15:56;;;;;;;0.15;0.15;;;6.90;99.90;;;;;;5069243;28;20161;-77
2021/11/14 10:18:23;;;;;;;0.65;0.65;;;6.80;99.90;;;;;;5061652;28;20192;-77
2021/11/14 10:20:54;;;;;;;0.20;0.20;;;6.80;99.90;;;;;;5053838;28;20180;-77
2021/11/14 10:23:20;;;;;;;0.68;0.68;;;6.90;99.90;;;;;;5066531;28;20226;-77
2021/11/14 10:25:49;;;;;;;0.20;0.20;;;6.80;99.90;;;;;;5065690;28;20169;-77
2021/11/14 10:28:15;;;;;;;0.10;0.10;;;6.80;99.90;;;;;;5047645;28;20189;-77
2021/11/14 10:30:45;;;;;;;0.13;0.13;;;6.90;99.90;;;;;;5047884;28;20199;-77
2021/11/14 10:33:15;;;;;;;1.08;1.05;;;6.90;99.90;;;;;;5055661;28;20235;-76
2021/11/14 10:35:43;;;;;;;0.63;0.63;;;6.70;99.90;;;;;;5060520;28;20203;-76
2021/11/14 10:38:15;;;;;;;2.10;1.30;;;6.70;99.90;;;;;;5067554;28;20191;-77
2021/11/14 10:40:46;;;;;;;0.10;0.10;;;6.80;99.90;;;;;;5068921;28;20159;-76
2021/11/14 10:43:13;;;;;;;2.33;0.98;;;6.70;99.90;;;;;;5068237;28;20273;-76
2021/11/14 10:45:40;;;;;;;0.52;0.52;;;6.70;99.90;;;;;;5067459;28;20160;-77
2021/11/14 10:48:14;;;;;;;0.20;0.20;;;6.70;99.90;;;;;;5067488;28;20168;-77
2021/11/14 10:50:42;;;;;;;0.40;0.40;;;6.70;99.90;;;;;;5068594;28;20164;-77
2021/11/14 10:53:11;;;;;;;0.85;0.85;;;6.70;99.90;;;;;;5066504;28;20196;-77
2021/11/14 10:55:46;;;;;;;0.22;0.22;;;6.70;99.90;;;;;;5073952;28;20207;-77
2021/11/14 10:58:14;;;;;;;0.10;0.10;;;6.70;99.90;;;;;;5067529;28;20206;-77
2021/11/14 11:00:42;;;;;;;0.10;0.10;;;6.80;99.90;;;;;;5053262;28;20203;-77
2021/11/14 11:03:09;;;;;;;0.40;0.40;;;6.80;99.90;;;;;;5047885;28;20204;-78
2021/11/14 11:05:35;;;;;;;0.10;0.10;;;6.70;99.90;;;;;;5047264;28;20193;-78
2021/11/14 11:08:03;;;;;;;0.15;0.15;;;6.80;99.90;;;;;;5050456;28;20188;-78
2021/11/14 11:10:37;;;;;;;0.38;0.38;;;6.80;99.90;;;;;;5048608;28;20164;-78
2021/11/14 11:13:07;;;;;;;0.30;0.30;;;6.80;99.90;;;;;;5049317;28;20203;-78
2021/11/14 11:15:42;;;;;;;0.20;0.20;;;6.70;99.90;;;;;;5088217;28;20163;-77
2021/11/14 11:18:14;;;;;;;0.90;0.90;;;6.80;99.90;;;;;;5083575;28;20179;-77
2021/11/14 11:20:41;;;;;;;0.40;0.40;;;6.80;99.90;;;;;;5051529;28;20185;-77
2021/11/14 11:23:10;;;;;;;0.55;0.55;;;6.80;99.90;;;;;;5047094;28;20563;-77
2021/11/14 11:25:54;;;;;;;0.35;0.35;;;6.80;99.90;;;;;;5050314;28;20173;-77
2021/11/14 11:28:22;;;;;;;0.30;0.30;;;6.60;99.90;;;;;;5068336;28;20152;-78
2021/11/14 11:30:51;;;;;;;0.73;0.55;;;6.70;99.90;;;;;;5067015;28;20176;-78
2021/11/14 11:33:19;;;;;;;4.57;1.27;;;6.80;99.90;;;;;;5067013;28;20203;-77
2021/11/14 11:35:45;;;;;;;0.10;0.10;;;6.90;99.90;;;;;;5068490;28;20189;-77
2021/11/14 11:38:13;;;;;;;0.10;0.10;;;7.00;99.90;;;;;;5072023;28;20187;-77
2021/11/14 11:40:40;;;;;;;0.10;0.10;;;7.20;99.90;;;;;;5070684;28;20176;-79
2021/11/14 11:43:06;;;;;;;0.77;0.77;;;7.20;99.90;;;;;;5070295;28;20212;-79
2021/11/14 11:45:41;;;;;;;0.63;0.63;;;7.10;99.90;;;;;;5071197;28;20157;-78
2021/11/14 11:48:24;;;;;;;0.08;0.08;;;7.10;99.90;;;;;;5071589;28;20164;-78
2021/11/14 11:50:52;;;;;;;0.10;0.10;;;7.20;99.90;;;;;;5070365;28;20160;-79
2021/11/14 11:53:28;;;;;;;0.10;0.10;;;7.20;99.90;;;;;;5069916;28;20215;-79
2021/11/14 11:56:12;;;;;;;0.68;0.68;;;7.30;99.90;;;;;;5070766;28;20216;-79
2021/11/14 11:58:44;;;;;;;1.38;1.00;;;7.30;99.90;;;;;;5086269;28;20196;-79
2021/11/14 12:01:30;;;;;;;0.45;0.45;;;7.30;99.90;;;;;;5090364;28;20172;-79
2021/11/14 12:04:13;;;;;;;0.10;0.10;;;7.30;99.90;;;;;;5091783;28;20156;-79
2021/11/14 12:06:55;;;;;;;0.10;0.10;;;7.40;99.90;;;;;;5091640;28;20497;-78
2021/11/14 12:09:23;;;;;;;0.13;0.13;;;7.10;99.90;;;;;;5091499;28;20187;-79
2021/11/14 12:11:50;;;;;;;0.15;0.15;;;6.90;99.90;;;;;;5091615;28;20182;-79
2021/11/14 12:14:20;;;;;;;0.45;0.35;;;6.90;99.90;;;;;;5090103;28;20172;-79
2021/11/14 12:17:07;;;;;;;0.00;0.00;;;7.00;99.90;;;;;;5090145;28;20172;-79
2021/11/14 12:19:36;;;;;;;0.28;0.28;;;7.00;99.90;;;;;;5052075;28;20260;-78
2021/11/14 12:22:02;;;;;;;0.30;0.30;;;6.90;99.90;;;;;;5049632;28;20213;-78
2021/11/14 12:24:32;;;;;;;0.32;0.32;;;6.90;99.90;;;;;;5051089;28;20212;-78
2021/11/14 12:26:59;;;;;;;0.10;0.10;;;6.90;99.90;;;;;;5065068;28;20165;-78
2021/11/14 12:29:41;;;;;;;0.10;0.10;;;6.80;99.90;;;;;;5070825;28;20609;-79
2021/11/14 12:32:26;;;;;;;0.20;0.20;;;6.70;99.90;;;;;;5069799;28;20164;-78
2021/11/14 12:35:02;;;;;;;0.20;0.20;;;6.70;99.90;;;;;;5069741;28;20192;-78
2021/11/14 12:37:28;;;;;;;0.65;0.65;;;6.80;99.90;;;;;;5070991;28;20152;-78
2021/11/14 12:39:54;;;;;;;0.28;0.28;;;6.80;99.90;;;;;;5070906;28;20232;-78
2021/11/14 12:42:21;;;;;;;0.10;0.10;;;6.80;99.90;;;;;;5069631;28;20562;-78
2021/11/14 12:44:49;;;;;;;0.20;0.20;;;6.80;99.90;;;;;;5069307;28;20161;-78
2021/11/14 12:47:24;;;;;;;0.73;0.73;;;6.80;99.90;;;;;;5070017;28;20157;-78
2021/11/14 12:50:14;;;;;;;3.70;3.20;;;6.80;99.90;;;;;;5067294;28;20169;-78
2021/11/14 12:52:42;;;;;;;0.40;0.40;;;6.70;99.90;;;;;;5050627;28;20181;-78
2021/11/14 12:55:23;;;;;;;1.02;0.93;;;6.80;99.90;;;;;;5070477;28;20183;-78
2021/11/14 12:57:55;;;;;;;0.85;0.85;;;6.90;99.90;;;;;;5069571;28;20211;-78
2021/11/14 13:00:35;;;;;;;0.28;0.28;;;6.90;99.90;;;;;;5069239;28;20168;-79
2021/11/14 13:03:06;;;;;;;1.25;1.15;;;7.00;99.90;;;;;;5049422;28;20212;-78